Time;durP1;ratioP1;P1;durP2;ratioP2;P2;SDS_P1;SDS_P2;PMS_P1;PMS_P2;Temp;Humidity;BMP_temperature;BMP_pressure;BME280_temperature;BME280_humidity;BME280_pressure;Samples;Min_cycle;Max_cycle;Signal;HPM_P1;HPM_P2
2022/03/16 00:01:25;;;;;;;2.88;2.47;;;19.10;41.90;;;;;;5098118;28;20011;-62
2022/03/16 00:03:52;;;;;;;4.70;2.88;;;19.10;41.80;;;;;;5116416;28;20019;-62
2022/03/16 00:06:18;;;;;;;4.60;2.72;;;19.10;41.80;;;;;;5097810;28;20054;-62
2022/03/16 00:08:43;;;;;;;4.63;2.95;;;19.00;41.80;;;;;;5116111;28;20027;-62
2022/03/16 00:11:09;;;;;;;3.67;2.67;;;19.10;41.90;;;;;;5116144;28;20462;-62
2022/03/16 00:13:35;;;;;;;3.45;2.80;;;19.10;42.50;;;;;;5116207;28;20012;-62
2022/03/16 00:16:01;;;;;;;2.75;2.40;;;19.00;41.90;;;;;;5116129;28;20481;-62
2022/03/16 00:18:27;;;;;;;3.72;2.80;;;19.00;41.90;;;;;;5097784;28;20077;-62
2022/03/16 00:20:56;;;;;;;3.72;2.85;;;19.00;41.90;;;;;;5115926;28;20020;-62
2022/03/16 00:23:21;;;;;;;4.07;2.83;;;19.00;41.90;;;;;;5115769;28;20069;-62
2022/03/16 00:25:47;;;;;;;3.63;2.47;;;19.00;42.00;;;;;;5097521;28;20011;-62
2022/03/16 00:28:13;;;;;;;3.88;2.70;;;19.00;41.90;;;;;;5115590;28;20032;-62
2022/03/16 00:30:42;;;;;;;3.70;2.60;;;19.00;41.90;;;;;;5097583;28;20050;-63
2022/03/16 00:33:08;;;;;;;4.38;2.70;;;19.00;41.90;;;;;;5115873;28;20012;-62
2022/03/16 00:35:34;;;;;;;4.45;2.72;;;19.00;41.90;;;;;;5097393;28;20837;-62
2022/03/16 00:37:59;;;;;;;4.00;2.90;;;19.00;41.90;;;;;;5096517;28;20493;-62
2022/03/16 00:40:26;;;;;;;3.38;2.80;;;19.00;41.90;;;;;;5115344;28;20024;-62
2022/03/16 00:42:52;;;;;;;4.32;2.70;;;18.90;41.90;;;;;;5115330;28;20039;-62
2022/03/16 00:45:18;;;;;;;4.35;3.13;;;19.00;42.00;;;;;;5115594;28;20019;-62
2022/03/16 00:47:45;;;;;;;5.05;3.00;;;19.00;42.00;;;;;;5115472;28;20078;-62
2022/03/16 00:50:11;;;;;;;3.97;2.80;;;18.90;41.90;;;;;;5115210;28;20026;-62
2022/03/16 00:52:36;;;;;;;3.45;3.00;;;18.90;41.90;;;;;;5097166;28;20095;-62
2022/03/16 00:55:02;;;;;;;4.65;3.28;;;18.90;41.90;;;;;;5115206;28;20504;-63
2022/03/16 00:57:28;;;;;;;4.38;3.22;;;18.90;41.90;;;;;;5115006;28;20028;-62
2022/03/16 00:59:54;;;;;;;3.72;3.00;;;18.90;41.90;;;;;;5096944;28;20064;-62
2022/03/16 01:02:20;;;;;;;4.03;3.30;;;18.90;41.90;;;;;;5097235;28;20031;-62
2022/03/16 01:04:48;;;;;;;4.85;3.20;;;18.90;42.00;;;;;;5096954;28;20015;-62
2022/03/16 01:07:14;;;;;;;3.60;3.08;;;18.90;41.90;;;;;;5114901;28;20043;-63
2022/03/16 01:09:40;;;;;;;4.20;2.92;;;18.90;42.00;;;;;;5114881;28;20023;-63
2022/03/16 01:12:07;;;;;;;4.30;3.00;;;18.90;42.00;;;;;;5096671;28;20133;-62
2022/03/16 01:14:33;;;;;;;4.03;3.15;;;18.90;42.00;;;;;;5079600;28;20019;-62
2022/03/16 01:17:00;;;;;;;4.55;3.40;;;18.90;42.00;;;;;;5114760;28;20032;-63
2022/03/16 01:19:26;;;;;;;4.40;3.08;;;18.90;42.00;;;;;;5114715;28;20015;-63
2022/03/16 01:21:53;;;;;;;5.15;3.50;;;18.90;42.00;;;;;;5096955;28;20024;-63
2022/03/16 01:24:19;;;;;;;4.05;3.10;;;18.80;41.90;;;;;;5114599;28;20024;-62
2022/03/16 01:26:45;;;;;;;5.20;3.47;;;18.80;42.00;;;;;;5079358;28;20422;-63
2022/03/16 01:29:12;;;;;;;3.65;3.10;;;18.80;42.00;;;;;;5096696;28;20015;-63
2022/03/16 01:31:38;;;;;;;5.03;3.22;;;18.80;42.00;;;;;;5096391;28;20095;-63
2022/03/16 01:34:05;;;;;;;4.65;3.20;;;18.80;42.00;;;;;;5096353;28;20065;-63
2022/03/16 01:36:30;;;;;;;5.40;3.47;;;18.80;42.00;;;;;;5114281;28;20039;-63
2022/03/16 01:38:56;;;;;;;5.70;3.40;;;18.80;42.00;;;;;;5114381;28;20055;-62
2022/03/16 01:41:22;;;;;;;4.43;3.38;;;18.80;42.00;;;;;;5096111;28;20024;-63
2022/03/16 01:43:53;;;;;;;4.35;3.40;;;18.80;41.90;;;;;;5096188;28;20015;-63
2022/03/16 01:46:20;;;;;;;3.90;3.10;;;18.80;41.90;;;;;;5095803;28;20110;-63
2022/03/16 01:48:46;;;;;;;5.57;3.50;;;18.80;41.90;;;;;;5114115;28;20531;-62
2022/03/16 01:51:12;;;;;;;4.93;3.60;;;18.80;42.00;;;;;;5095845;28;20012;-63
2022/03/16 01:53:40;;;;;;;4.47;3.58;;;18.80;41.90;;;;;;5114080;28;20004;-63
2022/03/16 01:56:06;;;;;;;4.60;3.67;;;18.80;41.90;;;;;;5095854;28;20004;-62
2022/03/16 01:58:32;;;;;;;5.50;3.60;;;18.80;41.90;;;;;;5113972;28;20130;-63
2022/03/16 02:00:57;;;;;;;4.07;3.42;;;18.80;41.90;;;;;;5095859;28;20024;-63
2022/03/16 02:03:23;;;;;;;6.38;3.90;;;18.70;41.90;;;;;;5096062;28;20030;-63
2022/03/16 02:05:49;;;;;;;4.47;3.60;;;18.70;41.90;;;;;;5096021;28;20027;-63
2022/03/16 02:08:15;;;;;;;3.60;3.25;;;18.70;41.90;;;;;;5078621;28;20466;-63
2022/03/16 02:10:41;;;;;;;4.40;3.47;;;18.80;41.90;;;;;;5113729;28;20023;-63
2022/03/16 02:13:09;;;;;;;5.28;3.70;;;18.70;41.80;;;;;;5113912;28;20036;-63
2022/03/16 02:15:35;;;;;;;5.25;3.47;;;18.80;41.90;;;;;;5095797;28;20037;-63
2022/03/16 02:18:01;;;;;;;5.15;3.70;;;18.70;41.90;;;;;;5113752;28;20023;-63
2022/03/16 02:20:27;;;;;;;4.45;3.60;;;18.70;41.90;;;;;;5113479;28;20042;-63
2022/03/16 02:23:01;;;;;;;4.43;3.72;;;18.70;41.90;;;;;;5095791;28;20047;-63
2022/03/16 02:25:27;;;;;;;5.97;4.03;;;18.70;41.90;;;;;;5113481;28;20015;-63
2022/03/16 02:27:53;;;;;;;5.07;3.95;;;18.70;41.90;;;;;;5095322;28;20016;-63
2022/03/16 02:30:22;;;;;;;7.00;4.30;;;18.70;41.90;;;;;;5095313;28;20020;-63
2022/03/16 02:32:49;;;;;;;5.38;3.90;;;18.70;41.90;;;;;;5095541;28;20405;-63
2022/03/16 02:35:14;;;;;;;5.63;3.80;;;18.60;41.90;;;;;;5095086;28;20478;-63
2022/03/16 02:37:40;;;;;;;4.57;3.60;;;18.70;41.90;;;;;;5113289;28;20034;-63
2022/03/16 02:40:07;;;;;;;4.80;3.70;;;18.70;41.90;;;;;;5113358;28;20508;-63
2022/03/16 02:42:33;;;;;;;5.00;3.97;;;18.60;41.80;;;;;;5113333;28;20020;-63
2022/03/16 02:45:02;;;;;;;5.22;3.88;;;18.70;41.80;;;;;;5113667;28;20046;-63
2022/03/16 02:47:28;;;;;;;4.72;3.58;;;18.60;41.80;;;;;;5113119;28;20066;-62
2022/03/16 02:49:55;;;;;;;5.95;4.45;;;18.60;41.80;;;;;;5095382;28;20015;-63
2022/03/16 02:52:22;;;;;;;4.70;3.88;;;18.60;41.70;;;;;;5113011;28;20019;-63
2022/03/16 02:54:49;;;;;;;5.63;3.80;;;18.60;41.80;;;;;;5095242;28;20008;-63
2022/03/16 02:57:18;;;;;;;4.03;3.55;;;18.60;41.70;;;;;;5112885;28;20045;-63
2022/03/16 02:59:44;;;;;;;5.03;3.80;;;18.60;41.70;;;;;;5112987;28;20008;-63
2022/03/16 03:02:11;;;;;;;4.88;3.85;;;18.60;41.80;;;;;;5094887;28;20104;-63
2022/03/16 03:04:39;;;;;;;4.57;3.80;;;18.60;41.80;;;;;;5094868;28;20104;-63
2022/03/16 03:07:05;;;;;;;5.28;3.90;;;18.60;41.80;;;;;;5112837;28;20072;-63
2022/03/16 03:09:31;;;;;;;4.50;3.72;;;18.60;41.80;;;;;;5112880;28;20019;-62
2022/03/16 03:11:59;;;;;;;4.10;3.67;;;18.60;41.80;;;;;;5112806;28;20463;-63
2022/03/16 03:14:26;;;;;;;4.65;3.80;;;18.60;41.80;;;;;;5094995;28;20012;-63
2022/03/16 03:16:52;;;;;;;4.95;3.90;;;18.60;41.80;;;;;;5113206;28;20055;-63
2022/03/16 03:19:18;;;;;;;4.80;3.90;;;18.60;41.80;;;;;;5112843;28;20047;-63
2022/03/16 03:21:43;;;;;;;5.68;4.13;;;18.60;41.80;;;;;;5094557;28;20062;-63
2022/03/16 03:24:10;;;;;;;5.53;4.15;;;18.60;41.80;;;;;;5094725;28;20027;-63
2022/03/16 03:26:36;;;;;;;5.30;4.00;;;18.60;41.70;;;;;;5112597;28;20061;-65
2022/03/16 03:29:02;;;;;;;6.30;4.28;;;18.60;41.80;;;;;;5094771;28;20028;-63
2022/03/16 03:31:28;;;;;;;6.10;4.43;;;18.60;41.70;;;;;;5095282;28;20087;-63
2022/03/16 03:33:54;;;;;;;5.28;4.10;;;18.60;41.70;;;;;;5112819;28;20491;-62
2022/03/16 03:36:20;;;;;;;4.63;3.70;;;18.60;41.70;;;;;;5112552;28;20142;-63
2022/03/16 03:38:45;;;;;;;5.43;3.85;;;18.50;41.60;;;;;;5112715;28;20044;-62
2022/03/16 03:41:12;;;;;;;5.15;4.28;;;18.50;41.70;;;;;;5112588;28;20016;-63
2022/03/16 03:43:38;;;;;;;4.78;4.00;;;18.60;41.70;;;;;;5112628;28;20027;-62
2022/03/16 03:46:04;;;;;;;5.15;4.05;;;18.50;41.60;;;;;;5094810;28;20016;-63
2022/03/16 03:48:30;;;;;;;5.18;3.88;;;18.50;41.60;;;;;;5094341;28;20031;-63
2022/03/16 03:50:56;;;;;;;5.40;3.90;;;18.50;41.60;;;;;;5112561;28;20024;-63
2022/03/16 03:53:21;;;;;;;4.70;3.85;;;18.50;41.50;;;;;;5094400;28;20027;-63
2022/03/16 03:55:48;;;;;;;6.40;4.43;;;18.50;41.60;;;;;;5094682;28;20016;-62
2022/03/16 03:58:14;;;;;;;5.70;4.28;;;18.50;41.60;;;;;;5112449;28;20016;-63
2022/03/16 04:00:40;;;;;;;5.47;3.92;;;18.50;41.60;;;;;;5094280;28;20024;-64
2022/03/16 04:03:07;;;;;;;4.53;3.88;;;18.50;41.60;;;;;;5112362;28;20031;-62
2022/03/16 04:05:32;;;;;;;4.57;3.83;;;18.50;41.60;;;;;;5112423;28;20015;-63
2022/03/16 04:07:59;;;;;;;5.30;4.13;;;18.50;41.60;;;;;;5112527;28;20016;-62
2022/03/16 04:10:24;;;;;;;6.25;3.80;;;18.40;41.50;;;;;;5112286;28;20066;-63
2022/03/16 04:12:51;;;;;;;5.38;3.90;;;18.50;41.50;;;;;;5113352;28;20054;-62
2022/03/16 04:15:20;;;;;;;5.57;4.15;;;18.50;41.50;;;;;;5098179;28;20024;-62
2022/03/16 04:17:46;;;;;;;4.80;3.78;;;18.50;41.50;;;;;;5115911;28;20052;-63
2022/03/16 04:20:12;;;;;;;4.80;4.10;;;18.50;41.50;;;;;;5115867;28;20031;-62
2022/03/16 04:22:38;;;;;;;5.78;3.90;;;18.40;41.50;;;;;;5097681;28;20475;-62
2022/03/16 04:25:04;;;;;;;5.40;4.07;;;18.40;41.50;;;;;;5115906;28;20421;-63
2022/03/16 04:27:30;;;;;;;5.18;4.00;;;18.50;41.50;;;;;;5115843;28;20031;-63
2022/03/16 04:30:01;;;;;;;5.75;4.35;;;18.50;41.50;;;;;;5115908;28;20012;-62
2022/03/16 04:32:27;;;;;;;5.38;3.75;;;18.50;41.50;;;;;;5115859;28;20087;-62
2022/03/16 04:34:53;;;;;;;4.57;3.85;;;18.50;41.50;;;;;;5115741;28;20526;-63
2022/03/16 04:37:20;;;;;;;5.68;3.67;;;18.40;41.50;;;;;;5115310;28;20043;-63
2022/03/16 04:39:46;;;;;;;4.13;3.42;;;18.40;41.50;;;;;;5115696;28;20045;-62
2022/03/16 04:42:12;;;;;;;5.13;3.60;;;18.40;41.50;;;;;;5115614;28;20016;-62
2022/03/16 04:44:39;;;;;;;5.15;3.70;;;18.40;41.40;;;;;;5115348;28;20081;-63
2022/03/16 04:47:06;;;;;;;4.28;3.70;;;18.50;41.40;;;;;;5115264;28;20032;-63
2022/03/16 04:49:32;;;;;;;4.10;3.40;;;18.50;41.20;;;;;;5115286;28;20011;-62
2022/03/16 04:51:58;;;;;;;3.72;3.08;;;18.50;41.10;;;;;;5115427;28;20016;-62
2022/03/16 04:54:23;;;;;;;4.13;3.50;;;18.60;41.10;;;;;;5097001;28;20019;-63
2022/03/16 04:56:49;;;;;;;3.58;3.20;;;18.70;40.90;;;;;;5115106;28;20016;-63
2022/03/16 04:59:15;;;;;;;4.00;3.55;;;18.70;40.60;;;;;;5115056;28;20048;-63
2022/03/16 05:01:41;;;;;;;4.10;3.13;;;18.80;40.40;;;;;;5115110;28;20016;-63
2022/03/16 05:04:08;;;;;;;5.00;3.60;;;19.00;40.10;;;;;;5096897;28;20076;-62
2022/03/16 05:06:37;;;;;;;3.45;3.15;;;19.10;39.80;;;;;;5114832;28;20019;-63
2022/03/16 05:09:03;;;;;;;4.60;3.63;;;19.30;40.10;;;;;;5114940;28;20050;-63
2022/03/16 05:11:28;;;;;;;3.47;2.95;;;19.40;39.20;;;;;;5096777;28;20049;-63
2022/03/16 05:13:57;;;;;;;5.18;3.38;;;19.50;39.00;;;;;;5114802;28;20024;-63
2022/03/16 05:16:22;;;;;;;4.00;3.08;;;19.50;38.80;;;;;;5114778;28;20483;-63
2022/03/16 05:18:48;;;;;;;4.82;3.05;;;19.50;38.70;;;;;;5096458;28;20024;-63
2022/03/16 05:21:14;;;;;;;3.80;3.17;;;19.60;38.60;;;;;;5114666;28;20022;-63
2022/03/16 05:23:40;;;;;;;3.60;3.00;;;19.70;38.50;;;;;;5114549;28;20028;-63
2022/03/16 05:26:06;;;;;;;3.55;2.95;;;19.80;38.30;;;;;;5114581;28;20018;-63
2022/03/16 05:28:32;;;;;;;3.53;2.78;;;19.90;38.20;;;;;;5096327;28;20510;-63
2022/03/16 05:30:58;;;;;;;3.58;3.10;;;20.00;37.90;;;;;;5114491;28;20102;-63
2022/03/16 05:33:24;;;;;;;3.22;2.80;;;20.00;37.70;;;;;;5096538;28;20043;-63
2022/03/16 05:35:50;;;;;;;3.17;2.65;;;20.10;37.60;;;;;;5092622;28;20090;-63
2022/03/16 05:38:16;;;;;;;3.97;2.95;;;20.20;37.40;;;;;;5075818;28;20054;-63
2022/03/16 05:40:42;;;;;;;3.25;2.95;;;20.30;37.20;;;;;;5093827;28;20024;-63
2022/03/16 05:43:09;;;;;;;3.90;2.90;;;20.40;37.00;;;;;;5093011;28;20107;-63
2022/03/16 05:45:35;;;;;;;3.85;2.88;;;20.50;36.90;;;;;;5093949;28;20099;-63
2022/03/16 05:48:01;;;;;;;4.50;3.35;;;20.60;36.80;;;;;;5092513;28;20102;-63
2022/03/16 05:50:28;;;;;;;4.28;3.03;;;20.60;36.60;;;;;;5093737;28;20054;-63
2022/03/16 05:52:57;;;;;;;3.58;2.80;;;20.70;36.50;;;;;;5093853;28;20491;-63
2022/03/16 05:55:23;;;;;;;3.58;3.03;;;20.80;36.30;;;;;;5093612;28;20017;-63
2022/03/16 05:57:50;;;;;;;4.82;2.90;;;20.80;36.10;;;;;;5093600;28;20146;-63
2022/03/16 06:00:17;;;;;;;3.50;2.70;;;20.90;36.00;;;;;;5093540;28;20475;-63
2022/03/16 06:02:45;;;;;;;3.53;2.67;;;21.00;35.80;;;;;;5093565;28;20004;-63
2022/03/16 06:05:11;;;;;;;3.28;2.60;;;21.00;35.70;;;;;;5093447;28;20022;-63
2022/03/16 06:07:37;;;;;;;4.28;2.70;;;21.00;35.70;;;;;;5092114;28;20032;-63
2022/03/16 06:10:07;;;;;;;3.65;2.65;;;21.10;35.60;;;;;;5093425;28;20022;-63
2022/03/16 06:12:33;;;;;;;2.83;2.50;;;21.20;35.50;;;;;;5092308;28;20016;-63
2022/03/16 06:14:58;;;;;;;3.28;2.60;;;21.20;35.40;;;;;;5093241;28;20091;-63
2022/03/16 06:17:24;;;;;;;3.55;2.65;;;21.20;35.30;;;;;;5091960;28;20049;-63
2022/03/16 06:19:51;;;;;;;3.33;2.80;;;21.30;35.30;;;;;;5092015;28;20019;-63
2022/03/16 06:22:16;;;;;;;3.10;2.67;;;21.30;35.10;;;;;;5093127;28;20020;-63
2022/03/16 06:24:43;;;;;;;3.08;2.65;;;21.30;35.00;;;;;;5093347;28;20073;-63
2022/03/16 06:27:09;;;;;;;2.75;2.47;;;21.40;35.00;;;;;;5092038;28;20031;-63
2022/03/16 06:29:34;;;;;;;4.95;3.03;;;21.40;34.90;;;;;;5093010;28;20020;-63
2022/03/16 06:32:02;;;;;;;4.38;2.80;;;21.50;34.80;;;;;;5092889;28;20091;-63
2022/03/16 06:34:29;;;;;;;2.97;2.60;;;21.60;34.70;;;;;;5092727;28;20518;-63
2022/03/16 06:36:55;;;;;;;3.35;2.58;;;21.60;34.50;;;;;;5090879;28;20091;-63
2022/03/16 06:39:20;;;;;;;3.08;2.55;;;21.60;34.50;;;;;;5074565;28;20016;-62
2022/03/16 06:41:46;;;;;;;3.45;2.70;;;21.70;34.40;;;;;;5091288;28;20020;-63
2022/03/16 06:44:12;;;;;;;3.17;2.50;;;21.70;34.20;;;;;;5091274;28;20630;-63
2022/03/16 06:46:38;;;;;;;2.95;2.50;;;21.80;34.20;;;;;;5074437;28;20060;-64
2022/03/16 06:49:03;;;;;;;3.17;2.58;;;21.80;34.10;;;;;;5091692;28;20012;-64
2022/03/16 06:51:30;;;;;;;3.28;2.40;;;21.80;34.00;;;;;;5091756;28;20088;-63
2022/03/16 06:53:56;;;;;;;3.28;2.53;;;21.90;34.00;;;;;;5091273;28;20643;-63
2022/03/16 06:56:22;;;;;;;4.00;2.50;;;21.90;33.90;;;;;;5092566;28;20047;-63
2022/03/16 06:58:51;;;;;;;3.67;2.33;;;21.90;33.90;;;;;;5091205;28;20012;-62
2022/03/16 07:01:19;;;;;;;2.88;2.58;;;21.90;33.80;;;;;;5074094;28;20057;-63
2022/03/16 07:03:45;;;;;;;3.78;2.53;;;22.00;33.80;;;;;;5092167;28;20028;-63
2022/03/16 07:06:12;;;;;;;2.95;2.42;;;22.10;33.80;;;;;;5074098;28;20071;-63
2022/03/16 07:08:37;;;;;;;3.85;2.80;;;22.10;33.70;;;;;;5090226;28;20028;-63
2022/03/16 07:11:03;;;;;;;2.83;2.30;;;22.10;33.50;;;;;;5091583;28;20015;-61
2022/03/16 07:13:29;;;;;;;4.32;2.25;;;22.20;33.50;;;;;;5072908;28;20031;-63
2022/03/16 07:15:55;;;;;;;3.40;2.50;;;22.20;33.30;;;;;;5090396;28;20028;-61
2022/03/16 07:18:23;;;;;;;4.30;2.45;;;22.30;33.30;;;;;;5089264;28;20024;-62
2022/03/16 07:20:49;;;;;;;3.58;2.30;;;22.30;33.30;;;;;;5088384;28;20391;-62
2022/03/16 07:23:27;;;;;;;3.30;2.40;;;22.40;33.20;;;;;;5089957;28;20012;-61
2022/03/16 07:25:53;;;;;;;5.88;2.50;;;22.40;33.10;;;;;;5090807;28;20120;-61
2022/03/16 07:28:19;;;;;;;4.57;2.53;;;22.40;33.30;;;;;;5090025;28;20039;-61
2022/03/16 07:30:45;;;;;;;5.93;2.67;;;22.50;33.30;;;;;;5090401;28;20051;-61
2022/03/16 07:33:11;;;;;;;5.50;3.00;;;22.50;33.10;;;;;;5090346;28;20486;-62
2022/03/16 07:35:37;;;;;;;6.85;3.05;;;22.60;33.20;;;;;;5094323;28;20494;-61
2022/03/16 07:38:03;;;;;;;5.13;2.30;;;22.60;33.10;;;;;;5076694;28;20019;-61
2022/03/16 07:40:30;;;;;;;4.10;2.85;;;22.70;33.10;;;;;;5111581;28;20090;-61
2022/03/16 07:42:56;;;;;;;3.50;2.60;;;22.70;32.90;;;;;;5093590;28;20103;-61
2022/03/16 07:45:22;;;;;;;6.68;2.80;;;22.80;32.90;;;;;;5111698;28;20115;-61
2022/03/16 07:47:49;;;;;;;4.03;2.60;;;22.80;32.90;;;;;;5114073;28;20024;-61
2022/03/16 07:50:14;;;;;;;5.75;2.70;;;22.80;32.80;;;;;;5115731;28;20012;-61
2022/03/16 07:52:40;;;;;;;7.65;2.88;;;22.90;32.80;;;;;;5115600;28;20492;-62
2022/03/16 07:55:07;;;;;;;9.23;2.60;;;22.90;32.70;;;;;;5097366;28;20111;-62
2022/03/16 07:57:33;;;;;;;4.28;2.95;;;22.90;32.70;;;;;;5097502;28;20012;-62
2022/03/16 07:59:59;;;;;;;4.38;2.53;;;22.90;32.60;;;;;;5115747;28;20024;-62
2022/03/16 08:02:29;;;;;;;3.17;2.65;;;23.00;32.70;;;;;;5115275;28;20025;-61
2022/03/16 08:04:57;;;;;;;4.40;2.53;;;23.00;32.60;;;;;;5115341;28;20023;-61
2022/03/16 08:07:27;;;;;;;4.32;2.50;;;23.10;32.50;;;;;;5096944;28;20023;-62
2022/03/16 08:09:54;;;;;;;3.35;2.60;;;23.10;32.40;;;;;;5096955;28;20016;-61
2022/03/16 08:12:22;;;;;;;3.63;2.40;;;23.20;32.40;;;;;;5096695;28;20011;-62
2022/03/16 08:18:11;;;;;;;4.53;2.20;;;23.20;32.30;;;;;;5104432;22;20174;-86
2022/03/16 08:20:36;;;;;;;5.30;2.28;;;23.20;32.30;;;;;;5078612;28;20493;-85
2022/03/16 08:23:02;;;;;;;3.85;2.35;;;23.30;32.30;;;;;;5061802;28;20097;-83
2022/03/16 08:25:28;;;;;;;4.85;2.05;;;23.30;32.20;;;;;;5078366;28;20393;-87
2022/03/16 08:27:59;;;;;;;5.43;2.70;;;23.40;32.20;;;;;;5078926;28;20038;-87
2022/03/16 08:30:24;;;;;;;3.78;2.30;;;23.40;32.20;;;;;;5078726;28;20016;-85
2022/03/16 08:32:50;;;;;;;5.22;2.40;;;23.50;32.30;;;;;;5078727;28;20439;-84
2022/03/16 08:35:16;;;;;;;4.57;2.10;;;23.40;32.20;;;;;;5078247;28;20026;-83
2022/03/16 08:37:42;;;;;;;6.70;3.05;;;23.50;32.20;;;;;;5077890;28;20020;-88
2022/03/16 08:40:08;;;;;;;5.65;2.45;;;23.50;32.20;;;;;;5079060;28;20020;-83
2022/03/16 08:42:34;;;;;;;4.18;2.53;;;23.50;32.10;;;;;;5079521;28;20012;-87
2022/03/16 08:45:01;;;;;;;4.97;1.95;;;23.60;32.10;;;;;;5083055;28;20083;-85
2022/03/16 08:47:27;;;;;;;5.55;2.30;;;23.60;32.10;;;;;;5065453;28;20466;-80
2022/03/16 08:49:56;;;;;;;3.78;2.08;;;23.60;32.00;;;;;;5082777;28;20020;-80
2022/03/16 08:52:23;;;;;;;3.08;2.05;;;23.70;32.00;;;;;;5081444;28;20028;-82
2022/03/16 08:54:50;;;;;;;6.28;2.33;;;23.70;31.90;;;;;;5096566;28;20020;-81
2022/03/16 08:57:16;;;;;;;3.78;2.10;;;23.80;31.80;;;;;;5061670;28;20420;-80
2022/03/16 08:59:42;;;;;;;5.07;1.95;;;23.80;31.90;;;;;;5077911;28;20090;-81
2022/03/16 09:02:09;;;;;;;7.13;1.90;;;23.80;31.80;;;;;;5078031;28;20028;-81
2022/03/16 09:04:35;;;;;;;5.38;2.17;;;23.80;31.80;;;;;;5062728;28;20016;-82
2022/03/16 09:07:06;;;;;;;5.22;2.45;;;23.90;31.80;;;;;;5066365;28;20134;-85
2022/03/16 09:09:34;;;;;;;5.47;2.20;;;23.90;31.80;;;;;;5090522;28;20016;-84
2022/03/16 09:12:09;;;;;;;6.47;2.38;;;23.90;31.70;;;;;;5067673;28;20572;-83
2022/03/16 09:14:35;;;;;;;6.00;2.42;;;23.90;31.70;;;;;;5084873;28;20039;-83
2022/03/16 09:17:01;;;;;;;9.07;2.70;;;23.80;31.90;;;;;;5067992;28;20111;-84
2022/03/16 09:19:28;;;;;;;14.45;5.45;;;23.80;32.10;;;;;;5069297;28;20110;-83
2022/03/16 09:22:00;;;;;;;25.13;6.82;;;22.20;35.50;;;;;;5082324;28;20025;-85
2022/03/16 09:24:26;;;;;;;12.27;9.57;;;21.00;38.50;;;;;;5081075;28;20140;-86
2022/03/16 09:26:58;;;;;;;12.32;10.43;;;18.50;42.90;;;;;;5061931;28;20096;-82
2022/03/16 09:29:26;;;;;;;15.82;8.70;;;18.10;44.00;;;;;;5079334;28;20120;-84
2022/03/16 09:31:52;;;;;;;16.60;8.20;;;18.50;44.20;;;;;;5080732;28;20504;-86
2022/03/16 09:34:18;;;;;;;14.73;7.93;;;18.90;42.90;;;;;;5078878;28;20024;-86
2022/03/16 09:36:45;;;;;;;14.05;8.10;;;19.40;41.80;;;;;;5078871;28;20081;-88
2022/03/16 09:39:12;;;;;;;9.90;7.80;;;18.90;42.90;;;;;;5078583;28;20024;-88
2022/03/16 09:41:37;;;;;;;17.50;8.23;;;19.20;42.50;;;;;;5061447;28;20362;-85
2022/03/16 09:44:04;;;;;;;10.20;7.13;;;19.60;41.30;;;;;;5077326;28;20032;-83
2022/03/16 09:46:31;;;;;;;14.65;6.97;;;19.40;41.80;;;;;;5077330;28;20418;-85
2022/03/16 09:48:57;;;;;;;11.65;7.65;;;19.30;43.10;;;;;;5076344;28;20024;-82
2022/03/16 09:51:25;;;;;;;13.50;8.75;;;19.50;41.50;;;;;;5076320;28;20024;-83
2022/03/16 09:53:55;;;;;;;9.48;7.35;;;19.40;41.60;;;;;;5077576;28;20004;-83
2022/03/16 09:56:22;;;;;;;14.23;8.02;;;19.10;42.60;;;;;;5078619;28;20105;-85
2022/03/16 09:58:49;;;;;;;14.55;9.63;;;19.50;41.90;;;;;;5076972;28;20024;-84
2022/03/16 10:01:15;;;;;;;12.20;7.55;;;18.40;44.20;;;;;;5076750;28;20423;-82
2022/03/16 10:03:40;;;;;;;14.80;8.05;;;18.70;44.10;;;;;;5076142;28;20054;-83
2022/03/16 10:06:07;;;;;;;14.70;7.90;;;18.80;43.70;;;;;;5059607;28;20039;-82
2022/03/16 10:08:34;;;;;;;8.48;6.90;;;19.30;43.10;;;;;;5075234;28;20024;-81
2022/03/16 10:13:48;;;;;;;8.68;5.47;;;20.70;39.90;;;;;;5078362;28;20027;-83
2022/03/16 10:16:14;;;;;;;6.93;4.20;;;21.10;38.70;;;;;;5074934;28;20020;-83
2022/03/16 10:18:40;;;;;;;10.77;3.80;;;21.50;37.90;;;;;;5059017;28;20115;-81
2022/03/16 10:21:06;;;;;;;10.73;3.58;;;21.80;37.40;;;;;;5059116;28;20035;-81
2022/03/16 10:23:32;;;;;;;9.23;3.20;;;22.10;36.90;;;;;;5075068;28;20106;-82
2022/03/16 10:25:59;;;;;;;6.25;2.85;;;22.20;36.50;;;;;;5093620;28;20024;-83
2022/03/16 10:28:31;;;;;;;7.70;2.88;;;22.30;36.10;;;;;;5074100;28;20031;-72
2022/03/16 10:31:07;;;;;;;12.90;2.58;;;22.50;35.90;;;;;;5058105;28;20050;-72
2022/03/16 10:33:46;;;;;;;5.60;2.33;;;22.60;35.70;;;;;;5075102;28;20058;-72
2022/03/16 10:36:16;;;;;;;7.80;2.40;;;22.70;35.60;;;;;;5058498;28;20027;-74
2022/03/16 10:38:52;;;;;;;6.15;2.25;;;22.70;35.40;;;;;;5074930;28;20394;-73
2022/03/16 10:47:20;;;;;;;3.92;2.08;;;22.90;35.10;;;;;;5077466;28;20089;-77
2022/03/16 10:49:48;;;;;;;7.32;2.30;;;23.00;35.00;;;;;;5076033;28;20453;-78
2022/03/16 10:52:20;;;;;;;5.80;2.28;;;23.00;34.90;;;;;;5073822;28;20122;-74
2022/03/16 10:54:47;;;;;;;3.28;1.90;;;23.10;34.90;;;;;;5075368;28;20111;-77
2022/03/16 10:57:14;;;;;;;5.53;2.55;;;23.10;34.80;;;;;;5074495;28;20012;-77
2022/03/16 10:59:53;;;;;;;4.13;2.22;;;23.10;34.70;;;;;;5073321;28;20123;-78
2022/03/16 11:02:20;;;;;;;5.10;1.83;;;23.10;34.70;;;;;;5057385;28;20485;-77
2022/03/16 11:04:47;;;;;;;7.10;2.40;;;23.10;34.70;;;;;;5073591;28;20028;-77
2022/03/16 11:07:15;;;;;;;9.32;3.22;;;23.20;34.70;;;;;;5074000;28;20477;-83
2022/03/16 11:09:41;;;;;;;8.25;2.38;;;23.20;34.70;;;;;;5074474;28;20024;-82
2022/03/16 11:14:52;;;;;;;6.65;2.80;;;23.20;34.80;;;;;;5077467;28;20034;-81
2022/03/16 11:17:18;;;;;;;7.68;2.50;;;23.10;34.80;;;;;;5071402;28;20060;-82
2022/03/16 11:19:46;;;;;;;7.30;2.30;;;23.10;35.00;;;;;;5071237;28;20013;-81
2022/03/16 11:22:19;;;;;;;10.85;3.17;;;23.00;35.20;;;;;;5072659;28;20397;-81
2022/03/16 11:25:03;;;;;;;14.02;2.63;;;23.00;35.30;;;;;;5075843;28;20406;-80
2022/03/16 11:27:52;;;;;;;6.97;2.67;;;22.90;35.40;;;;;;5075410;28;20024;-78
2022/03/16 11:30:30;;;;;;;9.75;2.60;;;22.90;35.50;;;;;;5075145;28;20025;-79
2022/03/16 11:33:06;;;;;;;6.50;2.17;;;22.80;35.70;;;;;;5059716;28;20103;-78
2022/03/16 11:35:44;;;;;;;7.40;2.40;;;22.80;35.80;;;;;;5058370;28;20032;-80
2022/03/16 11:38:13;;;;;;;5.40;2.30;;;22.70;35.90;;;;;;5075110;28;20051;-80
2022/03/16 11:40:40;;;;;;;7.07;2.47;;;22.70;35.90;;;;;;5075384;28;20013;-82
2022/03/16 11:43:15;;;;;;;7.78;2.65;;;22.60;36.10;;;;;;5074863;28;20474;-80
2022/03/16 11:45:46;;;;;;;8.02;2.30;;;22.60;36.30;;;;;;5075007;28;20020;-82
2022/03/16 11:48:33;;;;;;;6.70;2.42;;;22.50;36.50;;;;;;5058217;28;20451;-82
2022/03/16 11:51:20;;;;;;;6.47;2.17;;;22.50;36.60;;;;;;5076271;28;20032;-80
2022/03/16 11:53:57;;;;;;;5.88;2.70;;;22.40;36.60;;;;;;5074663;28;20023;-80
2022/03/16 11:56:24;;;;;;;12.10;2.58;;;22.40;36.80;;;;;;5074690;28;20021;-79
2022/03/16 11:59:03;;;;;;;8.02;2.42;;;22.30;36.90;;;;;;5074741;28;20013;-79
2022/03/16 12:01:37;;;;;;;18.00;2.88;;;22.20;37.00;;;;;;5058511;28;20466;-79
2022/03/16 12:04:19;;;;;;;11.75;2.47;;;22.20;37.20;;;;;;5074995;28;20026;-81
2022/03/16 12:06:52;;;;;;;12.23;2.95;;;22.10;37.30;;;;;;5074777;28;20024;-79
2022/03/16 12:09:37;;;;;;;12.90;3.22;;;22.10;37.50;;;;;;5076129;28;20012;-80
2022/03/16 12:15:11;;;;;;;14.43;3.42;;;22.00;37.60;;;;;;5078341;28;20059;-78
2022/03/16 12:17:41;;;;;;;13.10;2.90;;;22.00;37.80;;;;;;5077397;28;20414;-78
2022/03/16 12:20:12;;;;;;;13.73;3.90;;;21.90;37.90;;;;;;5060990;28;20020;-79
2022/03/16 12:22:39;;;;;;;14.27;3.70;;;21.80;38.00;;;;;;5074215;28;20016;-79
2022/03/16 12:25:29;;;;;;;10.63;3.20;;;21.80;38.10;;;;;;5074240;28;20016;-79
2022/03/16 12:30:47;;;;;;;11.57;3.08;;;21.80;38.20;;;;;;5074516;28;20007;-78
2022/03/16 12:33:16;;;;;;;9.60;3.25;;;21.70;38.30;;;;;;5056334;28;20475;-78
2022/03/16 12:35:43;;;;;;;11.85;3.50;;;21.70;38.50;;;;;;5073740;28;20036;-78
2022/03/16 12:38:09;;;;;;;13.15;3.22;;;21.60;38.50;;;;;;5073936;28;20016;-79
2022/03/16 12:42:31;;;;;;;8.35;3.00;;;21.60;38.50;;;;;;5074013;28;20020;-78
2022/03/16 12:43:28;;;;;;;11.23;3.70;;;21.60;38.70;;;;;;5074044;28;20035;-78
2022/03/16 12:46:17;;;;;;;13.02;3.08;;;21.50;38.80;;;;;;5073928;28;20028;-81
2022/03/16 12:48:44;;;;;;;12.90;3.30;;;21.50;39.00;;;;;;5074171;28;20024;-81
2022/03/16 12:51:10;;;;;;;8.55;3.08;;;21.50;39.10;;;;;;5073989;28;20008;-82
2022/03/16 12:53:47;;;;;;;9.68;3.25;;;21.50;39.10;;;;;;5074145;28;20089;-82
2022/03/16 12:56:21;;;;;;;11.18;3.00;;;21.40;39.60;;;;;;5074079;28;20695;-82
2022/03/16 12:58:54;;;;;;;8.68;3.20;;;21.40;39.20;;;;;;5073843;28;20027;-82
2022/03/16 13:01:20;;;;;;;13.80;3.58;;;21.40;39.40;;;;;;5056984;28;20009;-81
2022/03/16 13:03:46;;;;;;;10.75;3.40;;;21.40;39.50;;;;;;5073571;28;20085;-81
2022/03/16 13:06:15;;;;;;;7.97;2.92;;;21.30;39.50;;;;;;5073863;28;20397;-81
2022/03/16 13:08:43;;;;;;;11.68;3.60;;;21.30;39.70;;;;;;5073444;28;20116;-81